createdAt,value
2018-06-30T00:00:50.654Z,95.17
2018-06-30T00:03:19.941Z,95.84
2018-06-30T00:05:49.140Z,95.30
2018-06-30T00:08:18.336Z,95.84
2018-06-30T00:10:47.660Z,95.17
2018-06-30T00:13:16.954Z,95.06
2018-06-30T00:15:46.166Z,95.15
2018-06-30T00:18:15.403Z,95.65
2018-06-30T00:20:44.575Z,95.16
2018-06-30T00:23:13.770Z,95.65
2018-06-30T00:25:42.970Z,95.21
2018-06-30T00:28:12.264Z,96.07
2018-06-30T00:30:41.503Z,96.02
2018-06-30T00:33:10.718Z,96.34
2018-06-30T00:35:40.062Z,96.08
2018-06-30T00:38:09.333Z,96.54
2018-06-30T00:40:38.550Z,96.79
2018-06-30T00:43:07.712Z,96.81
2018-06-30T00:45:36.868Z,96.78
2018-06-30T00:48:06.089Z,97.00
2018-06-30T00:50:35.384Z,97.29
2018-06-30T00:53:04.589Z,96.62
2018-06-30T00:55:33.841Z,96.72
2018-06-30T00:58:03.096Z,96.88
2018-06-30T01:00:32.386Z,96.63
2018-06-30T01:03:01.743Z,96.89
2018-06-30T01:05:31.030Z,96.22
2018-06-30T01:08:00.261Z,96.08
2018-06-30T01:10:29.626Z,95.87
2018-06-30T01:12:58.926Z,96.27
2018-06-30T01:15:28.122Z,96.16
2018-06-30T01:17:57.440Z,96.21
2018-06-30T01:20:26.760Z,95.77
2018-06-30T01:22:56.501Z,95.35
2018-06-30T01:25:25.818Z,95.51
2018-06-30T01:27:55.050Z,95.83
2018-06-30T01:30:24.333Z,95.78
2018-06-30T01:32:53.604Z,95.68
2018-06-30T01:35:22.880Z,95.73
2018-06-30T01:37:52.180Z,96.08
2018-06-30T01:40:21.410Z,95.85
2018-06-30T01:42:50.719Z,95.68
2018-06-30T01:45:19.929Z,96.06
2018-06-30T01:47:49.370Z,95.96
2018-06-30T01:50:19.184Z,95.59
2018-06-30T01:52:48.448Z,96.13
2018-06-30T01:55:17.704Z,95.62
2018-06-30T01:57:46.914Z,96.04
2018-06-30T02:00:16.208Z,95.85
2018-06-30T02:02:45.599Z,95.39
2018-06-30T02:05:14.780Z,95.39
2018-06-30T02:07:43.974Z,95.59
2018-06-30T02:10:13.206Z,95.88
2018-06-30T02:12:42.368Z,95.99
2018-06-30T02:15:11.868Z,96.47
2018-06-30T02:17:41.010Z,95.81
2018-06-30T02:20:10.323Z,96.15
2018-06-30T02:22:39.552Z,95.83
2018-06-30T02:25:08.725Z,96.56
2018-06-30T02:27:37.934Z,95.89
2018-06-30T02:30:07.685Z,96.39
2018-06-30T02:32:36.913Z,95.75
2018-06-30T02:35:06.135Z,95.79
2018-06-30T02:37:35.355Z,96.31
2018-06-30T02:40:04.907Z,95.92
2018-06-30T02:42:34.145Z,96.19
2018-06-30T02:45:03.459Z,96.33
2018-06-30T02:47:32.688Z,96.32
2018-06-30T02:50:01.895Z,96.94
2018-06-30T02:52:31.041Z,96.57
2018-06-30T02:55:00.335Z,97.42
2018-06-30T02:57:29.567Z,97.41
2018-06-30T02:59:58.802Z,97.01
2018-06-30T03:02:28.046Z,97.19
2018-06-30T03:04:57.332Z,97.39
2018-06-30T03:07:26.721Z,97.87
2018-06-30T03:09:55.901Z,97.61
2018-06-30T03:12:25.131Z,97.21
2018-06-30T03:14:54.433Z,97.72
2018-06-30T03:17:23.619Z,98.21
2018-06-30T03:19:52.876Z,97.57
2018-06-30T03:22:22.144Z,97.78
2018-06-30T03:24:51.332Z,97.86
2018-06-30T03:27:20.490Z,97.89
2018-06-30T03:29:49.689Z,97.84
2018-06-30T03:32:18.840Z,97.61
2018-06-30T03:34:48.011Z,96.85
2018-06-30T03:37:17.240Z,96.98
2018-06-30T03:39:46.728Z,97.24
2018-06-30T03:42:16.081Z,97.99
2018-06-30T03:44:45.286Z,98.36
2018-06-30T03:47:14.566Z,98.27
2018-06-30T03:49:43.897Z,98.11
2018-06-30T03:52:13.099Z,98.57
2018-06-30T03:54:42.315Z,98.06
2018-06-30T03:57:11.547Z,98.04
2018-06-30T03:59:40.767Z,98.66
2018-06-30T04:02:09.997Z,98.28
2018-06-30T04:04:39.171Z,98.45
2018-06-30T04:07:08.310Z,97.70
2018-06-30T04:09:37.462Z,98.31
2018-06-30T04:12:06.659Z,98.57
2018-06-30T04:14:35.891Z,98.20
2018-06-30T04:17:05.260Z,97.94
2018-06-30T04:19:34.518Z,97.97
2018-06-30T04:22:03.820Z,97.85
2018-06-30T04:24:34.001Z,98.32
2018-06-30T04:27:03.217Z,99.08
2018-06-30T04:29:32.532Z,98.66
2018-06-30T04:32:01.789Z,99.14
2018-06-30T04:34:31.187Z,99.06
2018-06-30T04:37:00.451Z,99.53
2018-06-30T04:39:29.653Z,99.46
2018-06-30T04:41:58.890Z,98.71
2018-06-30T04:44:28.109Z,99.22
2018-06-30T04:46:57.449Z,99.36
2018-06-30T04:49:26.617Z,98.62
2018-06-30T04:51:55.805Z,99.35
2018-06-30T04:54:25.266Z,98.93
2018-06-30T04:56:54.495Z,98.60
2018-06-30T04:59:23.983Z,98.76
2018-06-30T05:01:53.229Z,98.44
2018-06-30T05:04:22.511Z,98.99
2018-06-30T05:06:51.713Z,99.09
2018-06-30T05:09:21.078Z,99.20
2018-06-30T05:11:50.420Z,98.49
2018-06-30T05:14:19.656Z,98.61
2018-06-30T05:16:48.949Z,98.53
2018-06-30T05:19:18.118Z,99.04
2018-06-30T05:21:47.315Z,99.08
2018-06-30T05:24:16.542Z,99.11
2018-06-30T05:26:45.997Z,98.50
2018-06-30T05:29:15.340Z,98.42
2018-06-30T05:31:44.631Z,98.74
2018-06-30T05:34:13.867Z,99.25
2018-06-30T05:36:43.148Z,98.63
2018-06-30T05:39:12.378Z,98.62
2018-06-30T05:41:41.641Z,98.90
2018-06-30T05:44:10.843Z,98.95
2018-06-30T05:46:40.035Z,98.79
2018-06-30T05:49:09.203Z,98.87
2018-06-30T05:51:38.387Z,99.00
2018-06-30T05:54:07.737Z,98.31
2018-06-30T05:56:36.967Z,98.58
2018-06-30T05:59:06.147Z,98.50
2018-06-30T06:01:35.355Z,98.45
2018-06-30T06:04:04.671Z,98.13
2018-06-30T06:06:33.901Z,97.90
2018-06-30T06:09:03.275Z,98.61
2018-06-30T06:11:32.477Z,97.56
2018-06-30T06:14:01.699Z,98.20
2018-06-30T06:16:30.887Z,97.44
2018-06-30T06:19:00.097Z,97.48
2018-06-30T06:21:29.362Z,97.26
2018-06-30T06:23:58.723Z,95.96
2018-06-30T06:26:28.298Z,95.34
2018-06-30T06:28:57.736Z,94.96
2018-06-30T06:31:26.984Z,94.46
2018-06-30T06:33:56.183Z,93.40
2018-06-30T06:36:25.415Z,93.12
2018-06-30T06:38:54.634Z,93.54
2018-06-30T06:41:23.981Z,92.57
2018-06-30T06:43:53.393Z,92.43
2018-06-30T06:46:22.593Z,90.54
2018-06-30T06:48:51.824Z,89.21
2018-06-30T06:51:21.106Z,88.62
2018-06-30T06:53:50.292Z,88.16
2018-06-30T06:56:19.573Z,87.13
2018-06-30T06:58:48.751Z,87.62
2018-06-30T07:01:17.941Z,86.99
2018-06-30T07:03:47.206Z,85.86
2018-06-30T07:06:16.423Z,85.57
2018-06-30T07:08:45.638Z,85.83
2018-06-30T07:11:14.901Z,84.86
2018-06-30T07:13:44.160Z,84.04
2018-06-30T07:16:13.363Z,83.10
2018-06-30T07:18:42.614Z,82.99
2018-06-30T07:21:11.870Z,82.91
2018-06-30T07:23:41.133Z,80.78
2018-06-30T07:26:10.353Z,80.54
2018-06-30T07:28:39.624Z,78.14
2018-06-30T07:31:08.863Z,74.82
2018-06-30T07:33:38.260Z,76.46
2018-06-30T07:36:07.578Z,75.19
2018-06-30T07:38:36.947Z,74.19
2018-06-30T07:41:06.176Z,73.26
2018-06-30T07:43:35.632Z,74.02
2018-06-30T07:46:04.975Z,74.47
2018-06-30T07:48:34.196Z,72.17
2018-06-30T07:51:03.475Z,70.74
2018-06-30T07:53:32.675Z,69.82
2018-06-30T07:56:01.880Z,70.33
2018-06-30T07:58:31.169Z,69.75
2018-06-30T08:01:00.404Z,70.88
2018-06-30T08:03:29.736Z,70.57
2018-06-30T08:05:58.857Z,70.22
2018-06-30T08:08:28.040Z,69.35
2018-06-30T08:10:57.305Z,68.52
2018-06-30T08:13:26.521Z,68.11
2018-06-30T08:15:55.769Z,68.69
2018-06-30T08:18:25.020Z,68.40
2018-06-30T08:20:54.193Z,67.64
2018-06-30T08:23:23.600Z,66.74
2018-06-30T08:25:52.896Z,64.16
2018-06-30T08:28:22.073Z,64.85
2018-06-30T08:30:51.269Z,66.72
2018-06-30T08:33:20.415Z,65.49
2018-06-30T08:35:49.591Z,65.15
2018-06-30T08:38:18.762Z,61.66
2018-06-30T08:40:47.906Z,61.70
2018-06-30T08:43:17.227Z,62.50
2018-06-30T08:45:46.467Z,61.05
2018-06-30T08:48:15.628Z,60.98
2018-06-30T08:50:44.883Z,60.65
2018-06-30T08:53:14.038Z,63.74
2018-06-30T08:55:43.736Z,61.80
2018-06-30T08:58:12.921Z,61.48
2018-06-30T09:00:42.184Z,56.30
2018-06-30T09:03:11.372Z,56.60
2018-06-30T09:05:40.816Z,58.39
2018-06-30T09:08:10.096Z,56.24
2018-06-30T09:10:39.355Z,56.53
2018-06-30T09:13:08.556Z,56.25
2018-06-30T09:15:37.777Z,57.47
2018-06-30T09:18:07.115Z,56.29
2018-06-30T09:20:36.449Z,55.55
2018-06-30T09:23:06.096Z,55.31
2018-06-30T09:25:35.320Z,55.79
2018-06-30T09:28:04.691Z,56.13
2018-06-30T09:30:33.902Z,55.31
2018-06-30T09:33:03.169Z,55.12
2018-06-30T09:35:32.455Z,54.35
2018-06-30T09:38:01.781Z,54.78
2018-06-30T09:40:30.958Z,56.48
2018-06-30T09:43:00.187Z,54.95
2018-06-30T09:45:29.435Z,55.65
2018-06-30T09:47:59.386Z,57.08
2018-06-30T09:50:28.726Z,56.34
2018-06-30T09:52:58.005Z,56.59
2018-06-30T09:55:27.330Z,54.39
2018-06-30T09:57:56.528Z,55.37
2018-06-30T10:00:31.121Z,55.45
2018-06-30T10:03:00.453Z,55.12
2018-06-30T10:05:29.836Z,54.17
2018-06-30T10:07:59.100Z,52.70
2018-06-30T10:10:28.738Z,55.29
2018-06-30T10:12:58.220Z,56.81
2018-06-30T10:15:27.432Z,54.76
2018-06-30T10:17:56.756Z,56.31
2018-06-30T10:20:26.056Z,58.15
2018-06-30T10:22:55.317Z,55.99
2018-06-30T10:25:24.998Z,55.47
2018-06-30T10:27:54.208Z,56.99
2018-06-30T10:30:23.673Z,55.09
2018-06-30T10:32:52.963Z,54.56
2018-06-30T10:35:22.108Z,56.40
2018-06-30T10:37:51.429Z,60.16
2018-06-30T10:40:20.637Z,55.89
2018-06-30T10:42:49.804Z,58.40
2018-06-30T10:45:19.096Z,57.24
2018-06-30T10:47:48.267Z,56.49
2018-06-30T10:50:17.419Z,54.75
2018-06-30T10:52:46.595Z,56.57
2018-06-30T10:55:15.795Z,56.47
2018-06-30T10:57:44.985Z,55.49
2018-06-30T11:00:14.239Z,55.70
2018-06-30T11:02:43.456Z,56.63
2018-06-30T11:05:12.831Z,56.86
2018-06-30T11:07:41.967Z,57.86
2018-06-30T11:10:11.409Z,56.31
2018-06-30T11:12:40.658Z,57.21
2018-06-30T11:15:09.887Z,56.19
2018-06-30T11:17:39.553Z,57.05
2018-06-30T11:20:08.702Z,56.93
2018-06-30T11:22:39.259Z,57.12
2018-06-30T11:25:09.269Z,55.78
2018-06-30T11:27:38.434Z,56.66
2018-06-30T11:30:08.468Z,56.19
2018-06-30T11:32:37.788Z,55.35
2018-06-30T11:35:07.745Z,55.34
2018-06-30T11:37:37.207Z,56.27
2018-06-30T11:40:06.543Z,56.90
2018-06-30T11:42:35.812Z,56.77
2018-06-30T11:45:04.990Z,55.42
2018-06-30T11:47:34.202Z,54.18
2018-06-30T11:50:03.440Z,55.27
2018-06-30T11:52:32.638Z,55.27
2018-06-30T12:01:00.223Z,55.93
2018-06-30T12:03:34.956Z,56.32
2018-06-30T12:15:54.982Z,56.10
2018-06-30T12:18:29.791Z,54.37
2018-06-30T12:20:59.030Z,54.37
2018-06-30T12:23:28.527Z,55.35
2018-06-30T12:25:57.761Z,53.89
2018-06-30T12:28:26.941Z,55.48
2018-06-30T12:30:56.113Z,53.54
2018-06-30T12:33:25.478Z,53.51
2018-06-30T12:35:54.610Z,54.47
2018-06-30T12:38:24.029Z,51.84
2018-06-30T12:40:53.432Z,51.16
2018-06-30T12:43:22.673Z,54.79
2018-06-30T12:45:51.909Z,52.70
2018-06-30T13:57:25.455Z,45.26
2018-06-30T13:59:54.537Z,44.40
2018-06-30T14:02:23.581Z,46.07
2018-06-30T14:04:52.650Z,45.18
2018-06-30T14:07:21.740Z,46.15
2018-06-30T14:09:50.825Z,46.03
2018-06-30T14:12:19.939Z,46.69
2018-06-30T14:14:48.986Z,45.80
2018-06-30T14:17:18.074Z,43.27
2018-06-30T14:19:47.234Z,43.39
2018-06-30T14:22:16.272Z,42.85
2018-06-30T14:24:45.322Z,41.88
2018-06-30T14:27:14.426Z,41.05
2018-06-30T14:29:43.488Z,40.22
2018-06-30T14:32:12.606Z,40.74
2018-06-30T14:34:41.654Z,40.33
2018-06-30T14:37:10.761Z,41.12
2018-06-30T14:39:40.238Z,40.24
2018-06-30T14:42:10.370Z,42.32
2018-06-30T14:44:40.265Z,41.81
2018-06-30T14:47:10.331Z,41.35
2018-06-30T14:49:40.437Z,40.08
2018-06-30T14:52:10.434Z,40.05
2018-06-30T14:54:40.459Z,38.33
2018-06-30T14:57:10.466Z,38.52
2018-06-30T14:59:40.640Z,38.00
2018-06-30T15:02:10.557Z,38.42
2018-06-30T15:04:40.586Z,37.83
2018-06-30T15:07:10.530Z,37.94
2018-06-30T15:09:40.566Z,36.80
2018-06-30T15:12:10.779Z,36.45
2018-06-30T15:14:40.495Z,34.74
2018-06-30T15:17:09.586Z,36.24
2018-06-30T15:19:38.726Z,36.85
2018-06-30T15:22:07.835Z,35.73
2018-06-30T15:24:37.210Z,35.29
2018-06-30T15:27:06.248Z,35.82
2018-06-30T15:29:35.349Z,35.77
2018-06-30T15:32:04.434Z,35.78
2018-06-30T15:34:33.582Z,34.92
2018-06-30T15:37:02.633Z,33.82
2018-06-30T15:39:31.776Z,35.86
2018-06-30T15:42:00.882Z,33.93
2018-06-30T15:44:30.001Z,33.75
2018-06-30T15:46:59.057Z,34.48
2018-06-30T15:49:28.175Z,33.83
2018-06-30T15:51:57.654Z,32.97
2018-06-30T15:54:26.712Z,32.95
2018-06-30T15:56:56.259Z,32.94
2018-06-30T15:59:25.356Z,32.34
2018-06-30T16:01:54.615Z,32.54
2018-06-30T16:04:24.235Z,32.48
2018-06-30T16:06:53.852Z,32.16
2018-06-30T16:09:22.942Z,31.93
2018-06-30T16:11:52.282Z,30.79
2018-06-30T16:14:21.328Z,32.10
2018-06-30T16:16:50.450Z,32.96
2018-06-30T16:19:19.761Z,31.84
2018-06-30T16:21:49.322Z,31.80
2018-06-30T16:24:18.985Z,31.62
2018-06-30T16:26:48.256Z,31.47
2018-06-30T16:29:17.399Z,32.39
2018-06-30T16:31:46.508Z,32.72
2018-06-30T16:34:15.627Z,33.87
2018-06-30T16:36:45.089Z,33.82
2018-06-30T16:39:14.640Z,33.30
2018-06-30T16:41:43.714Z,34.20
2018-06-30T16:44:13.198Z,34.23
2018-06-30T16:46:42.308Z,34.73
2018-06-30T16:49:11.760Z,34.54
2018-06-30T16:51:41.665Z,36.59
2018-06-30T16:54:11.425Z,36.16
2018-06-30T17:16:00.788Z,34.85
2018-06-30T17:18:29.844Z,36.65
2018-06-30T17:20:58.934Z,36.46
2018-06-30T17:23:28.483Z,37.19
2018-06-30T17:25:57.967Z,35.88
2018-06-30T17:28:27.048Z,36.79
2018-06-30T17:30:56.102Z,37.16
2018-06-30T17:33:26.041Z,37.53
2018-06-30T17:35:55.502Z,37.76
2018-06-30T17:38:24.561Z,37.14
2018-06-30T17:40:53.606Z,37.01
2018-06-30T17:43:22.833Z,36.55
2018-06-30T17:45:52.256Z,37.10
2018-06-30T17:48:21.852Z,37.08
2018-06-30T17:50:50.973Z,37.20
2018-06-30T17:53:20.634Z,37.18
2018-06-30T17:55:49.919Z,36.50
2018-06-30T17:58:19.060Z,36.50
2018-06-30T18:00:48.203Z,37.00
2018-06-30T18:03:17.361Z,36.62
2018-06-30T18:05:46.766Z,37.26
2018-06-30T18:08:15.821Z,37.35
2018-06-30T18:10:45.357Z,37.96
2018-06-30T18:13:14.473Z,38.84
2018-06-30T18:15:43.974Z,38.87
2018-06-30T18:18:13.914Z,39.11
2018-06-30T18:20:43.902Z,39.74
2018-06-30T18:23:13.944Z,38.76
2018-06-30T18:25:43.893Z,38.33
2018-06-30T18:28:14.247Z,37.80
2018-06-30T18:30:44.360Z,38.78
2018-06-30T18:33:14.089Z,38.97
2018-06-30T18:35:44.058Z,38.93
2018-06-30T18:38:14.091Z,39.40
2018-06-30T18:40:44.038Z,39.48
2018-06-30T18:43:14.089Z,38.61
2018-06-30T18:45:44.247Z,39.92
2018-06-30T18:48:14.116Z,39.16
2018-06-30T18:50:44.250Z,39.94
2018-06-30T18:53:14.129Z,39.77
2018-06-30T19:15:03.302Z,39.97
2018-06-30T19:17:32.545Z,40.22
2018-06-30T19:20:01.985Z,40.84
2018-06-30T19:22:32.409Z,40.92
2018-06-30T19:25:01.875Z,39.91
2018-06-30T19:27:30.954Z,41.75
2018-06-30T19:30:00.088Z,41.45
2018-06-30T19:32:29.167Z,40.93
2018-06-30T19:34:58.216Z,41.73
2018-06-30T19:37:27.305Z,42.17
2018-06-30T19:39:56.343Z,42.13
2018-06-30T19:42:25.482Z,42.24
2018-06-30T19:44:54.500Z,42.44
2018-06-30T19:47:23.620Z,42.54
2018-06-30T19:49:52.681Z,42.76
2018-06-30T19:52:21.900Z,43.21
2018-06-30T19:54:51.024Z,43.39
2018-06-30T19:57:20.158Z,43.65
2018-06-30T19:59:49.209Z,43.81
2018-06-30T20:02:18.283Z,44.49
2018-06-30T20:04:47.347Z,44.83
2018-06-30T20:07:16.622Z,44.80
2018-06-30T20:09:45.698Z,44.75
2018-06-30T20:12:15.194Z,44.51
2018-06-30T20:14:45.119Z,45.24
2018-06-30T20:17:15.203Z,45.17
2018-06-30T20:19:45.042Z,45.78
2018-06-30T20:22:44.743Z,45.49
2018-06-30T20:25:13.833Z,45.57
2018-06-30T20:27:42.962Z,46.08
2018-06-30T20:30:12.033Z,46.58
2018-06-30T20:32:41.073Z,46.43
2018-06-30T20:35:10.208Z,46.70
2018-06-30T20:37:39.299Z,46.53
2018-06-30T20:40:08.405Z,47.37
2018-06-30T20:42:37.680Z,47.43
2018-06-30T20:45:06.932Z,47.97
2018-06-30T20:47:36.079Z,47.29
2018-06-30T20:50:05.706Z,48.32
2018-06-30T20:52:34.758Z,48.38
2018-06-30T20:55:03.877Z,48.23
2018-06-30T20:57:32.946Z,49.14
2018-06-30T21:00:02.077Z,49.16
2018-06-30T21:02:31.185Z,48.98
2018-06-30T21:05:00.283Z,49.99
2018-06-30T21:07:29.520Z,49.61
2018-06-30T21:09:58.698Z,49.69
2018-06-30T21:12:27.773Z,50.58
2018-06-30T21:14:56.963Z,50.17
2018-06-30T21:17:26.113Z,50.64
2018-06-30T21:19:55.156Z,50.48
2018-06-30T21:22:24.301Z,51.29
2018-06-30T21:24:53.393Z,51.48
2018-06-30T21:27:22.454Z,51.84
2018-06-30T21:29:51.579Z,52.07
2018-06-30T21:32:20.646Z,52.00
2018-06-30T21:34:49.730Z,52.75
2018-06-30T21:37:18.839Z,53.16
2018-06-30T21:39:47.875Z,52.97
2018-06-30T21:42:17.054Z,53.32
2018-06-30T21:44:46.107Z,53.31
2018-06-30T21:47:16.154Z,53.69
2018-06-30T21:49:45.963Z,53.83
2018-06-30T21:52:16.167Z,53.75
2018-06-30T21:54:46.009Z,54.57
2018-06-30T21:57:16.170Z,54.69
2018-06-30T21:59:46.618Z,54.77
2018-06-30T22:02:16.170Z,54.89
2018-06-30T22:04:46.474Z,55.52
2018-06-30T22:07:16.106Z,55.39
2018-06-30T22:09:45.703Z,55.23
2018-06-30T22:12:14.802Z,55.36
2018-06-30T22:14:44.107Z,55.65
2018-06-30T22:17:13.847Z,55.66
2018-06-30T22:19:43.107Z,56.15
2018-06-30T22:22:12.166Z,56.26
2018-06-30T22:24:41.275Z,56.79
2018-06-30T22:27:10.353Z,56.75
2018-06-30T22:29:39.455Z,56.57
2018-06-30T22:32:08.559Z,56.86
2018-06-30T22:34:37.669Z,56.77
2018-06-30T22:37:06.861Z,56.39
2018-06-30T22:39:47.227Z,56.38
2018-06-30T22:42:16.522Z,56.32
2018-06-30T22:44:46.724Z,56.72
2018-06-30T22:47:16.727Z,57.19
2018-06-30T22:49:46.604Z,56.79
2018-06-30T22:52:16.684Z,57.29
2018-06-30T22:54:46.709Z,57.33
2018-06-30T22:57:16.777Z,57.74
2018-06-30T22:59:46.755Z,57.49
2018-06-30T23:02:16.638Z,57.75
2018-06-30T23:04:46.737Z,58.00
2018-06-30T23:07:16.856Z,58.13
2018-06-30T23:09:46.683Z,57.86
2018-06-30T23:12:15.846Z,58.11
2018-06-30T23:14:44.933Z,58.92
2018-06-30T23:17:14.035Z,58.63
2018-06-30T23:19:43.541Z,58.81
2018-06-30T23:22:12.629Z,58.74
2018-06-30T23:24:41.734Z,58.58
2018-06-30T23:27:10.810Z,59.51
2018-06-30T23:29:39.886Z,58.83
2018-06-30T23:32:08.916Z,59.36
2018-06-30T23:34:37.969Z,59.26
2018-06-30T23:37:07.076Z,59.77
2018-06-30T23:39:36.154Z,60.23
2018-06-30T23:42:05.502Z,59.95
2018-06-30T23:44:35.066Z,60.08
2018-06-30T23:47:04.783Z,60.47
2018-06-30T23:49:34.011Z,60.68
2018-06-30T23:52:03.173Z,60.42
2018-06-30T23:54:32.498Z,60.65
2018-06-30T23:57:01.584Z,60.52
2018-06-30T23:59:30.898Z,60.91
